»·PEaware :: SKW997 KPDX-KSBP

SKW997 :: KPDX-KSBP

FLIGHT INFORMATION

Flight Status: Arrived
Operator:
SkyWest Airlines
More flights by this operator :: More flights under this callsign
Pilot: Chandler S. (807)
Aircraft: EMBRAER EMB-170/175
(E170)
More flights by this aircraft type
Origin: KPDX Portland Intl
United States
Destination: KSBP San Luis Co Regl
United States
More flights between these airports :: More routes between these airports
Route: +CASCD2 JOGEN Q7 JAGWA PRB CREPE
File this flight plan on PilotEdge
Remarks:
Altitude:
(Current/Filed)
33,000ft
Speed:
(Current/Filed)
300kts
Departed: 07-Jan-18 01:25 PM
Arrived: 07-Jan-18 03:03 PM
Distance/Time
Traveled:
627nm/1:38
Distance/Time
To Go:
Arrived

Flight Plot

Page will automatically refresh every two minutes.

Flight plan parsing failed; only flown route is shown


Map Options




Map Legend


Flown Route
Filed Route
Departure Airport
Arrival Airport
Navaid (VOR, NDB)
Fix

Horizontal Profiles

Position Reports

Time Latitude Longitude Heading Altitude Ground
Speed
07-Jan-18 12:53 45.586767 -122.592888 53 36ft 0kts
07-Jan-18 12:54 45.586767 -122.592888 53 36ft 0kts
07-Jan-18 12:57 45.586767 -122.592888 52 36ft 0kts
07-Jan-18 12:58 45.586767 -122.592888 52 36ft 0kts
07-Jan-18 12:59 45.586767 -122.592888 52 36ft 0kts
07-Jan-18 13:00 45.586767 -122.592888 52 36ft 0kts
07-Jan-18 13:01 45.586767 -122.592888 52 36ft 0kts
07-Jan-18 13:02 45.586767 -122.592888 52 36ft 0kts
07-Jan-18 13:03 45.586767 -122.592888 52 36ft 0kts
07-Jan-18 13:04 45.586767 -122.592888 52 36ft 0kts
07-Jan-18 13:05 45.586767 -122.592888 52 36ft 0kts
07-Jan-18 13:06 45.586767 -122.592888 52 36ft 0kts
07-Jan-18 13:07 45.586767 -122.592888 53 36ft 0kts
07-Jan-18 13:08 45.586767 -122.592888 52 36ft 0kts
07-Jan-18 13:09 45.586767 -122.592888 52 36ft 0kts
07-Jan-18 13:10 45.586767 -122.592888 52 36ft 0kts
07-Jan-18 13:11 45.586769 -122.592884 53 37ft 0kts
07-Jan-18 13:12 45.586544 -122.593315 53 37ft 2kts
07-Jan-18 13:13 45.586026 -122.593293 317 37ft 2kts
07-Jan-18 13:14 45.585945 -122.593164 307 37ft 0kts
07-Jan-18 13:15 45.585945 -122.593164 307 37ft 0kts
07-Jan-18 13:16 45.585945 -122.593164 307 37ft 0kts
07-Jan-18 13:17 45.585945 -122.593164 307 37ft 0kts
07-Jan-18 13:18 45.585945 -122.593164 307 37ft 0kts
07-Jan-18 13:19 45.585945 -122.593164 307 37ft 0kts
07-Jan-18 13:20 45.585945 -122.593164 307 37ft 0kts
07-Jan-18 13:21 45.585945 -122.593164 307 37ft 0kts
07-Jan-18 13:22 45.587582 -122.596769 298 37ft 7kts
07-Jan-18 13:23 45.590087 -122.603096 282 36ft 11kts
07-Jan-18 13:24 45.592015 -122.608478 297 37ft 27kts
07-Jan-18 13:25 45.596231 -122.620287 242 37ft 20kts
07-Jan-18 13:26 45.595862 -122.620725 206 37ft 0kts
07-Jan-18 13:27 45.595862 -122.620725 206 37ft 0kts
07-Jan-18 13:28 45.595862 -122.620725 206 37ft 0kts
07-Jan-18 13:29 45.595862 -122.620725 206 37ft 0kts
07-Jan-18 13:30 45.595862 -122.620725 206 37ft 0kts
07-Jan-18 13:31 45.593389 -122.616899 118 37ft 109kts
07-Jan-18 13:32 45.577579 -122.543251 101 3237ft 222kts
07-Jan-18 13:33 45.564663 -122.455238 107 6684ft 244kts
07-Jan-18 13:34 45.546372 -122.354795 109 10292ft 282kts
07-Jan-18 13:35 45.488627 -122.282123 167 13729ft 298kts
07-Jan-18 13:36 45.400446 -122.251222 172 15027ft 362kts
07-Jan-18 13:37 45.301847 -122.222078 173 15918ft 378kts
07-Jan-18 13:38 45.201956 -122.192890 174 19689ft 357kts
07-Jan-18 13:39 45.103682 -122.164515 174 22481ft 372kts
07-Jan-18 13:40 45.003335 -122.111479 159 23175ft 407kts
07-Jan-18 13:41 44.901704 -122.041599 158 23170ft 413kts
07-Jan-18 13:42 44.799214 -121.971092 158 25830ft 419kts
07-Jan-18 13:43 44.693359 -121.898573 158 28529ft 428kts
07-Jan-18 13:44 44.586523 -121.825701 158 30786ft 436kts
07-Jan-18 13:45 44.477810 -121.751808 158 32675ft 434kts
07-Jan-18 13:46 44.365930 -121.676181 158 33137ft 467kts
07-Jan-18 13:47 44.243555 -121.637785 176 33128ft 450kts
07-Jan-18 13:48 44.119683 -121.617527 176 33124ft 450kts
07-Jan-18 13:49 43.996068 -121.597758 176 33123ft 451kts
07-Jan-18 13:50 43.874097 -121.578326 176 33129ft 450kts
07-Jan-18 13:51 43.750493 -121.558740 176 33133ft 449kts
07-Jan-18 13:52 43.626673 -121.539187 176 33128ft 450kts
07-Jan-18 13:53 43.502997 -121.519746 176 33131ft 451kts
07-Jan-18 13:54 43.379038 -121.500320 176 33128ft 450kts
07-Jan-18 13:55 43.255094 -121.480988 176 33128ft 450kts
07-Jan-18 13:56 43.130975 -121.461710 176 33148ft 450kts
07-Jan-18 13:57 43.007655 -121.442656 176 33190ft 449kts
07-Jan-18 13:58 42.885368 -121.423828 176 33198ft 444kts
07-Jan-18 13:59 42.762975 -121.405034 176 33195ft 444kts
07-Jan-18 14:00 42.641398 -121.386451 176 33196ft 443kts
07-Jan-18 14:01 42.538229 -121.370732 176 33194ft 444kts
07-Jan-18 14:02 42.416049 -121.352200 176 33193ft 444kts
07-Jan-18 14:03 42.294287 -121.333794 176 33189ft 443kts
07-Jan-18 14:04 42.172218 -121.315411 177 33187ft 443kts
07-Jan-18 14:05 42.050230 -121.297126 176 33186ft 443kts
07-Jan-18 14:06 41.928406 -121.278929 177 33183ft 444kts
07-Jan-18 14:07 41.807003 -121.260861 176 33192ft 444kts
07-Jan-18 14:08 41.684725 -121.242727 177 33194ft 443kts
07-Jan-18 14:09 41.562952 -121.224769 177 33193ft 443kts
07-Jan-18 14:10 41.440591 -121.206742 177 33188ft 443kts
07-Jan-18 14:11 41.318847 -121.188896 176 33188ft 444kts
07-Jan-18 14:12 41.196633 -121.171073 177 33151ft 442kts
07-Jan-18 14:13 41.075149 -121.153236 178 33147ft 435kts
07-Jan-18 14:14 40.957016 -121.136052 183 33147ft 425kts
07-Jan-18 14:15 40.842112 -121.119664 183 33175ft 428kts
07-Jan-18 14:16 40.724341 -121.102734 183 33174ft 429kts
07-Jan-18 14:17 40.605859 -121.085717 183 33172ft 431kts
07-Jan-18 14:18 40.487049 -121.068741 183 33170ft 434kts
07-Jan-18 14:19 40.368388 -121.051862 183 33171ft 434kts
07-Jan-18 14:20 40.248661 -121.034855 184 33167ft 436kts
07-Jan-18 14:21 40.129043 -121.017973 183 33172ft 436kts
07-Jan-18 14:22 40.008828 -121.001019 183 33167ft 437kts
07-Jan-18 14:23 39.888142 -120.984108 183 33173ft 438kts
07-Jan-18 14:24 39.767902 -120.967265 183 33168ft 439kts
07-Jan-18 14:25 39.645462 -120.950187 183 33179ft 440kts
07-Jan-18 14:26 39.523761 -120.933283 183 33176ft 440kts
07-Jan-18 14:27 39.403219 -120.916636 183 33177ft 443kts
07-Jan-18 14:28 39.281513 -120.899807 184 33184ft 442kts
07-Jan-18 14:29 39.159851 -120.883102 183 33186ft 440kts
07-Jan-18 14:30 39.038261 -120.866451 183 33182ft 442kts
07-Jan-18 14:31 38.917892 -120.850064 182 33173ft 447kts
07-Jan-18 14:32 38.800749 -120.834082 182 33181ft 449kts
07-Jan-18 14:33 38.677690 -120.817409 182 33187ft 445kts
07-Jan-18 14:34 38.554356 -120.800728 182 33172ft 447kts
07-Jan-18 14:35 38.431478 -120.784189 182 33166ft 447kts
07-Jan-18 14:36 38.308196 -120.767652 182 33156ft 446kts
07-Jan-18 14:37 38.186604 -120.751387 182 33159ft 449kts
07-Jan-18 14:38 38.063299 -120.734911 182 33165ft 446kts
07-Jan-18 14:39 37.940208 -120.718582 182 33163ft 447kts
07-Jan-18 14:40 37.818397 -120.702467 182 33163ft 449kts
07-Jan-18 14:41 37.695040 -120.686178 182 33165ft 446kts
07-Jan-18 14:42 37.571888 -120.669983 182 33156ft 447kts
07-Jan-18 14:43 37.448326 -120.653791 182 33169ft 448kts
07-Jan-18 14:44 37.324904 -120.636986 182 33156ft 448kts
07-Jan-18 14:45 37.203306 -120.637417 187 33163ft 440kts
07-Jan-18 14:46 37.080750 -120.636634 187 33159ft 440kts
07-Jan-18 14:47 36.959555 -120.635797 188 33159ft 436kts
07-Jan-18 14:48 36.839495 -120.635016 188 33165ft 440kts
07-Jan-18 14:49 36.718080 -120.634177 188 33169ft 437kts
07-Jan-18 14:50 36.605183 -120.633413 188 33170ft 437kts
07-Jan-18 14:51 36.484135 -120.632595 188 33171ft 437kts
07-Jan-18 14:52 36.363418 -120.631808 188 32082ft 436kts
07-Jan-18 14:53 36.242522 -120.631014 187 30129ft 440kts
07-Jan-18 14:54 36.122912 -120.630209 186 27660ft 432kts
07-Jan-18 14:55 36.005766 -120.629408 185 25071ft 419kts
07-Jan-18 14:56 35.893443 -120.628667 185 23043ft 402kts
07-Jan-18 14:57 35.807602 -120.628108 184 20884ft 394kts
07-Jan-18 14:58 35.684805 -120.631110 194 17288ft 368kts
07-Jan-18 14:59 35.597281 -120.685733 212 14210ft 351kts
07-Jan-18 15:00 35.529245 -120.737755 212 11629ft 345kts
07-Jan-18 15:01 35.457247 -120.792952 213 8409ft 253kts
07-Jan-18 15:02 35.396515 -120.834724 183 6035ft 246kts
07-Jan-18 15:03 35.336834 -120.799508 139 6022ft 246kts
07-Jan-18 15:04 35.293063 -120.737827 126 6013ft 240kts
07-Jan-18 15:05 35.252043 -120.675194 133 4272ft 222kts
07-Jan-18 15:06 35.211896 -120.629448 138 2015ft 189kts
07-Jan-18 15:07 35.201293 -120.583381 14 1330ft 144kts
07-Jan-18 15:08 35.222799 -120.615719 307 644ft 128kts
07-Jan-18 15:09 35.238853 -120.643598 305 219ft 27kts
07-Jan-18 15:10 35.239151 -120.642083 97 219ft 15kts
07-Jan-18 15:11 35.239038 -120.641469 124 219ft 0kts
07-Jan-18 15:12 35.239038 -120.641469 124 219ft 0kts
07-Jan-18 15:13 35.239038 -120.641469 124 219ft 0kts
07-Jan-18 15:14 35.239038 -120.641469 124 219ft 0kts
07-Jan-18 15:15 35.239038 -120.641469 124 219ft 0kts
07-Jan-18 15:16 35.239038 -120.641469 124 219ft 0kts

Navigation Log

Ident Type
Flight plan parsing failed, navigation log unavailable